createdAt,value
2023-03-19T00:00:29.040Z,82.63
2023-03-19T00:02:56.310Z,82.44
2023-03-19T00:05:23.269Z,82.76
2023-03-19T00:07:52.950Z,82.87
2023-03-19T00:10:19.719Z,82.92
2023-03-19T00:12:46.650Z,82.92
2023-03-19T00:15:16.141Z,82.95
2023-03-19T00:17:43.372Z,82.88
2023-03-19T00:20:11.939Z,83.04
2023-03-19T00:22:39.795Z,82.94
2023-03-19T00:25:08.298Z,83.21
2023-03-19T00:27:35.769Z,83.17
2023-03-19T00:30:02.700Z,83.22
2023-03-19T00:32:30.171Z,82.90
2023-03-19T00:34:57.150Z,82.64
2023-03-19T00:37:23.866Z,82.29
2023-03-19T00:39:50.649Z,82.08
2023-03-19T00:42:17.877Z,81.97
2023-03-19T00:44:44.587Z,82.03
2023-03-19T00:47:11.438Z,81.93
2023-03-19T00:49:38.298Z,81.87
2023-03-19T00:52:05.164Z,81.83
2023-03-19T00:54:32.632Z,81.65
2023-03-19T00:56:59.526Z,81.52
2023-03-19T00:59:26.474Z,81.43
2023-03-19T01:01:54.548Z,81.28
2023-03-19T01:04:21.969Z,81.25
2023-03-19T01:06:48.996Z,81.27
2023-03-19T01:09:16.067Z,81.13
2023-03-19T01:11:42.929Z,81.39
2023-03-19T01:14:09.804Z,81.46
2023-03-19T01:16:36.869Z,81.58
2023-03-19T01:19:03.934Z,81.58
2023-03-19T01:21:32.438Z,81.71
2023-03-19T01:23:59.175Z,81.78
2023-03-19T01:26:26.350Z,82.05
2023-03-19T01:28:53.225Z,82.30
2023-03-19T01:31:20.039Z,82.48
2023-03-19T01:33:47.885Z,82.67
2023-03-19T01:36:14.778Z,82.74
2023-03-19T01:38:41.502Z,82.66
2023-03-19T01:41:08.384Z,82.60
2023-03-19T01:43:35.098Z,82.44
2023-03-19T01:46:03.231Z,82.66
2023-03-19T01:48:54.854Z,82.63
2023-03-19T01:51:24.888Z,83.02
2023-03-19T01:53:56.620Z,83.01
2023-03-19T01:56:27.992Z,83.05
2023-03-19T01:59:01.969Z,83.55
2023-03-19T02:01:29.510Z,83.79
2023-03-19T02:03:56.620Z,84.30
2023-03-19T02:06:23.395Z,84.36
2023-03-19T02:08:50.366Z,84.71
2023-03-19T02:11:17.179Z,84.90
2023-03-19T02:13:43.970Z,84.78
2023-03-19T02:16:11.049Z,84.74
2023-03-19T02:18:37.905Z,84.60
2023-03-19T02:21:12.250Z,84.54
2023-03-19T02:23:47.819Z,84.79
2023-03-19T02:26:15.733Z,84.74
2023-03-19T02:28:44.163Z,84.85
2023-03-19T02:31:11.495Z,84.94
2023-03-19T02:33:38.355Z,84.88
2023-03-19T02:36:06.521Z,84.93
2023-03-19T02:38:34.029Z,84.37
2023-03-19T02:41:01.654Z,84.63
2023-03-19T02:43:29.784Z,84.61
2023-03-19T02:45:56.640Z,84.67
2023-03-19T02:48:23.810Z,84.32
2023-03-19T02:50:50.964Z,84.38
2023-03-19T02:53:17.731Z,84.54
2023-03-19T02:55:44.587Z,84.27
2023-03-19T02:58:11.444Z,84.22
2023-03-19T03:00:38.329Z,83.77
2023-03-19T03:03:06.826Z,84.03
2023-03-19T03:05:33.975Z,84.29
2023-03-19T03:08:00.828Z,84.50
2023-03-19T03:10:27.757Z,84.32
2023-03-19T03:12:54.796Z,84.28
2023-03-19T03:15:21.831Z,84.40
2023-03-19T03:17:48.790Z,84.50
2023-03-19T03:20:17.790Z,84.23
2023-03-19T03:22:44.651Z,84.09
2023-03-19T03:25:11.551Z,84.08
2023-03-19T03:27:38.462Z,83.89
2023-03-19T03:30:08.199Z,84.08
2023-03-19T03:32:38.241Z,84.01
2023-03-19T03:35:06.253Z,83.85
2023-03-19T03:37:34.314Z,83.34
2023-03-19T03:40:07.011Z,83.19
2023-03-19T03:42:34.384Z,83.04
2023-03-19T03:45:01.139Z,82.51
2023-03-19T03:47:27.942Z,82.07
2023-03-19T03:49:54.659Z,81.88
2023-03-19T03:52:21.452Z,81.47
2023-03-19T03:54:49.532Z,81.15
2023-03-19T03:57:16.300Z,81.06
2023-03-19T03:59:43.096Z,80.98
2023-03-19T04:02:10.600Z,80.96
2023-03-19T04:04:37.374Z,80.58
2023-03-19T04:07:04.422Z,80.64
2023-03-19T04:09:31.548Z,80.28
2023-03-19T04:11:58.277Z,80.02
2023-03-19T04:14:25.249Z,79.95
2023-03-19T04:16:52.329Z,80.07
2023-03-19T04:19:19.417Z,80.10
2023-03-19T04:21:46.927Z,80.06
2023-03-19T04:24:14.502Z,79.82
2023-03-19T04:26:41.299Z,79.79
2023-03-19T04:29:08.877Z,79.74
2023-03-19T04:31:35.698Z,79.77
2023-03-19T04:34:02.773Z,79.93
2023-03-19T04:36:29.579Z,80.27
2023-03-19T04:38:57.136Z,80.61
2023-03-19T04:41:24.026Z,80.99
2023-03-19T04:43:50.904Z,80.96
2023-03-19T04:46:17.769Z,81.15
2023-03-19T04:48:45.646Z,81.14
2023-03-19T04:51:12.405Z,80.92
2023-03-19T04:53:40.127Z,80.75
2023-03-19T04:56:08.074Z,80.89
2023-03-19T04:58:35.108Z,80.54
2023-03-19T05:01:02.336Z,80.58
2023-03-19T05:03:31.314Z,80.44
2023-03-19T05:05:58.229Z,80.52
2023-03-19T05:08:25.163Z,80.32
2023-03-19T05:10:51.937Z,80.29
2023-03-19T05:13:21.411Z,80.11
2023-03-19T05:15:48.749Z,79.95
2023-03-19T05:18:15.545Z,79.88
2023-03-19T05:20:42.838Z,79.67
2023-03-19T05:23:09.720Z,79.68
2023-03-19T05:25:36.444Z,79.39
2023-03-19T05:28:04.187Z,79.38
2023-03-19T05:30:31.959Z,79.33
2023-03-19T05:32:59.831Z,79.49
2023-03-19T05:35:27.830Z,79.62
2023-03-19T05:37:54.761Z,79.86
2023-03-19T05:40:22.311Z,79.91
2023-03-19T05:42:49.184Z,79.67
2023-03-19T05:45:17.598Z,79.60
2023-03-19T05:47:45.049Z,79.60
2023-03-19T05:50:12.390Z,79.66
2023-03-19T05:52:39.246Z,79.40
2023-03-19T05:55:06.923Z,79.12
2023-03-19T05:57:33.634Z,79.03
2023-03-19T06:00:00.371Z,78.99
2023-03-19T06:02:27.376Z,79.23
2023-03-19T06:04:54.227Z,79.53
2023-03-19T06:07:21.192Z,79.55
2023-03-19T06:09:48.015Z,79.89
2023-03-19T06:12:14.843Z,80.27
2023-03-19T06:14:41.664Z,80.37
2023-03-19T06:17:09.633Z,80.52
2023-03-19T06:19:36.493Z,80.46
2023-03-19T06:22:03.257Z,80.39
2023-03-19T06:24:30.892Z,80.53
2023-03-19T06:26:57.799Z,80.69
2023-03-19T06:29:24.630Z,80.50
2023-03-19T06:31:51.713Z,80.50
2023-03-19T06:34:18.900Z,80.53
2023-03-19T06:36:45.812Z,80.27
2023-03-19T06:39:13.122Z,80.07
2023-03-19T06:41:40.084Z,79.75
2023-03-19T06:44:06.999Z,79.75
2023-03-19T06:46:33.807Z,80.12
2023-03-19T06:49:00.950Z,80.60
2023-03-19T06:51:28.009Z,80.85
2023-03-19T06:53:55.165Z,81.04
2023-03-19T06:56:22.139Z,81.40
2023-03-19T06:58:48.918Z,81.25
2023-03-19T07:01:16.831Z,81.11
2023-03-19T07:03:43.771Z,81.33
2023-03-19T07:06:10.621Z,80.95
2023-03-19T07:08:37.432Z,80.71
2023-03-19T07:11:05.664Z,80.56
2023-03-19T07:13:33.277Z,80.90
2023-03-19T07:16:00.554Z,81.44
2023-03-19T07:18:27.368Z,82.27
2023-03-19T07:20:54.166Z,82.87
2023-03-19T07:23:20.996Z,83.27
2023-03-19T07:25:47.852Z,83.58
2023-03-19T07:28:14.821Z,84.19
2023-03-19T07:30:41.674Z,84.87
2023-03-19T07:33:08.606Z,85.75
2023-03-19T07:35:35.575Z,85.50
2023-03-19T07:38:02.990Z,83.94
2023-03-19T07:40:29.858Z,83.35
2023-03-19T07:42:56.599Z,83.01
2023-03-19T07:45:23.520Z,82.69
2023-03-19T07:47:51.671Z,81.80
2023-03-19T07:50:18.616Z,81.63
2023-03-19T07:52:49.342Z,81.65
2023-03-19T07:55:16.183Z,82.13
2023-03-19T07:57:43.027Z,82.68
2023-03-19T08:00:10.881Z,82.97
2023-03-19T08:02:37.628Z,83.55
2023-03-19T08:05:04.924Z,84.08
2023-03-19T08:07:32.235Z,84.36
2023-03-19T08:09:58.985Z,84.73
2023-03-19T08:12:26.170Z,85.80
2023-03-19T08:14:53.052Z,85.91
2023-03-19T08:17:19.886Z,85.63
2023-03-19T08:19:47.081Z,85.24
2023-03-19T08:22:13.968Z,84.69
2023-03-19T08:24:40.970Z,84.04
2023-03-19T08:27:08.226Z,81.67
2023-03-19T08:29:35.242Z,80.72
2023-03-19T08:32:02.072Z,79.16
2023-03-19T08:34:28.915Z,78.15
2023-03-19T08:36:55.955Z,78.63
2023-03-19T08:39:22.694Z,79.94
2023-03-19T08:41:49.466Z,80.83
2023-03-19T08:44:16.536Z,81.68
2023-03-19T08:46:43.331Z,82.51
2023-03-19T08:49:10.102Z,83.02
2023-03-19T08:51:36.959Z,83.49
2023-03-19T08:54:03.814Z,84.27
2023-03-19T08:56:30.596Z,84.54
2023-03-19T08:58:57.741Z,84.79
2023-03-19T09:01:24.601Z,85.12
2023-03-19T09:03:51.369Z,85.37
2023-03-19T09:06:18.246Z,85.89
2023-03-19T09:08:45.052Z,86.18
2023-03-19T09:11:11.900Z,86.69
2023-03-19T09:13:39.013Z,85.73
2023-03-19T09:16:06.781Z,85.05
2023-03-19T09:18:34.204Z,86.20
2023-03-19T09:21:01.262Z,87.16
2023-03-19T09:23:28.054Z,87.39
2023-03-19T09:25:54.791Z,87.50
2023-03-19T09:28:22.824Z,87.63
2023-03-19T09:30:50.060Z,87.02
2023-03-19T09:33:17.331Z,84.87
2023-03-19T09:35:44.282Z,83.77
2023-03-19T09:38:11.127Z,84.58
2023-03-19T09:41:10.992Z,87.27
2023-03-19T09:43:54.483Z,95.08
2023-03-19T09:46:23.942Z,96.78
2023-03-19T09:49:04.051Z,96.31
2023-03-19T09:51:36.478Z,95.08
2023-03-19T09:54:18.340Z,86.76
2023-03-19T09:56:45.182Z,84.15
2023-03-19T09:59:12.078Z,85.46
2023-03-19T10:01:39.196Z,89.17
2023-03-19T10:04:24.820Z,92.23
2023-03-19T10:06:52.135Z,95.30
2023-03-19T10:09:21.871Z,97.84
2023-03-19T10:12:09.958Z,98.33
2023-03-19T10:14:55.280Z,100.00
2023-03-19T10:17:27.880Z,99.85
2023-03-19T10:20:01.640Z,99.20
2023-03-19T10:22:36.895Z,99.54
2023-03-19T10:25:05.022Z,99.79
2023-03-19T10:27:31.729Z,99.05
2023-03-19T10:29:58.589Z,97.77
2023-03-19T10:32:38.689Z,93.13
2023-03-19T10:35:10.130Z,92.24
2023-03-19T10:37:38.142Z,92.14
2023-03-19T10:40:11.875Z,90.42
2023-03-19T10:43:18.352Z,86.46
2023-03-19T10:45:45.378Z,87.06
2023-03-19T10:48:18.784Z,79.64
2023-03-19T10:50:58.347Z,77.01
2023-03-19T10:53:35.169Z,71.63
2023-03-19T10:56:07.742Z,68.96
2023-03-19T10:58:35.956Z,67.15
2023-03-19T11:01:10.000Z,65.06
2023-03-19T11:03:53.323Z,62.41
2023-03-19T11:06:28.263Z,61.71
2023-03-19T11:09:10.829Z,61.14
2023-03-19T11:11:50.692Z,58.42
2023-03-19T11:14:22.606Z,57.93
2023-03-19T11:17:08.712Z,57.98
2023-03-19T11:19:42.313Z,56.04
2023-03-19T11:22:38.686Z,54.88
2023-03-19T11:25:38.964Z,52.96
2023-03-19T11:28:26.314Z,49.89
2023-03-19T11:30:59.355Z,49.49
2023-03-19T11:33:27.207Z,50.83
2023-03-19T11:36:14.132Z,51.37
2023-03-19T11:39:11.866Z,52.16
2023-03-19T11:41:58.777Z,51.46
2023-03-19T11:44:42.459Z,51.12
2023-03-19T11:47:33.091Z,49.91
2023-03-19T11:50:18.786Z,48.94
2023-03-19T11:53:00.660Z,48.49
2023-03-19T11:55:34.053Z,47.68
2023-03-19T11:58:16.263Z,46.67
2023-03-19T12:00:57.463Z,45.52
2023-03-19T12:03:59.275Z,45.68
2023-03-19T12:06:41.506Z,46.19
2023-03-19T12:09:37.396Z,45.69
2023-03-19T12:12:07.304Z,45.74
2023-03-19T12:14:49.831Z,44.77
2023-03-19T12:17:35.004Z,43.71
2023-03-19T12:20:12.205Z,43.15
2023-03-19T12:22:57.048Z,42.04
2023-03-19T12:25:48.108Z,39.51
2023-03-19T12:28:24.357Z,39.88
2023-03-19T12:31:26.469Z,38.79
2023-03-19T12:34:34.057Z,39.22
2023-03-19T12:37:21.606Z,38.90
2023-03-19T12:40:15.059Z,37.97
2023-03-19T12:42:42.285Z,39.53
2023-03-19T12:45:24.640Z,38.96
2023-03-19T12:47:51.580Z,40.04
2023-03-19T12:50:18.470Z,39.10
2023-03-19T12:52:49.683Z,38.66
2023-03-19T12:55:19.433Z,37.70
2023-03-19T12:57:52.029Z,37.55
2023-03-19T13:00:27.421Z,37.26
2023-03-19T13:03:07.654Z,37.35
2023-03-19T13:05:46.384Z,36.27
2023-03-19T13:08:40.190Z,36.51
2023-03-19T13:11:18.936Z,36.08
2023-03-19T13:13:49.958Z,36.67
2023-03-19T13:16:34.496Z,36.02
2023-03-19T13:19:18.366Z,36.22
2023-03-19T13:21:45.207Z,36.11
2023-03-19T13:24:21.993Z,34.10
2023-03-19T13:26:53.230Z,33.24
2023-03-19T13:29:32.979Z,33.75
2023-03-19T13:32:04.935Z,35.20
2023-03-19T13:34:33.366Z,37.04
2023-03-19T13:37:16.555Z,38.16
2023-03-19T13:39:43.427Z,39.27
2023-03-19T13:42:20.268Z,40.51
2023-03-19T13:44:50.557Z,41.74
2023-03-19T13:47:29.386Z,42.42
2023-03-19T13:50:22.410Z,43.43
2023-03-19T13:52:51.083Z,43.66
2023-03-19T13:55:44.938Z,44.65
2023-03-19T13:58:28.983Z,45.30
2023-03-19T14:00:58.511Z,46.14
2023-03-19T14:03:26.723Z,46.71
2023-03-19T14:05:55.244Z,47.42
2023-03-19T14:08:47.792Z,47.62
2023-03-19T14:11:25.344Z,48.12
2023-03-19T14:13:52.743Z,48.22
2023-03-19T14:16:26.998Z,48.80
2023-03-19T14:18:57.759Z,49.18
2023-03-19T14:21:46.648Z,49.53
2023-03-19T14:24:55.362Z,49.71
2023-03-19T14:27:33.744Z,50.05
2023-03-19T14:30:03.114Z,50.42
2023-03-19T14:32:35.894Z,50.58
2023-03-19T14:35:05.182Z,50.72
2023-03-19T14:37:38.052Z,50.98
2023-03-19T14:40:17.261Z,51.09
2023-03-19T14:42:47.218Z,51.23
2023-03-19T14:45:14.589Z,51.56
2023-03-19T14:47:46.503Z,51.49
2023-03-19T14:50:13.334Z,51.84
2023-03-19T14:53:12.171Z,51.91
2023-03-19T14:55:39.032Z,52.00
2023-03-19T14:58:05.741Z,52.25
2023-03-19T15:00:46.954Z,52.48
2023-03-19T15:03:37.394Z,52.39
2023-03-19T15:06:05.544Z,52.57
2023-03-19T15:08:33.374Z,52.81
2023-03-19T15:11:16.376Z,53.04
2023-03-19T15:14:24.683Z,52.96
2023-03-19T15:17:07.025Z,53.39
2023-03-19T15:19:33.890Z,52.80
2023-03-19T15:22:16.172Z,52.88
2023-03-19T15:24:43.146Z,53.16
2023-03-19T15:27:26.651Z,53.02
2023-03-19T15:29:53.768Z,52.87
2023-03-19T15:32:56.365Z,52.96
2023-03-19T15:36:12.153Z,52.89
2023-03-19T15:38:42.346Z,52.93
2023-03-19T15:41:09.165Z,53.24
2023-03-19T15:43:37.109Z,53.36
2023-03-19T15:46:04.119Z,53.49
2023-03-19T15:48:44.020Z,53.26
2023-03-19T15:51:11.293Z,53.20
2023-03-19T15:53:38.620Z,53.32
2023-03-19T15:56:05.761Z,53.22
2023-03-19T15:58:37.220Z,53.00
2023-03-19T16:01:06.193Z,53.15
2023-03-19T16:03:38.317Z,53.34
2023-03-19T16:06:14.441Z,53.29
2023-03-19T16:08:53.595Z,53.31
2023-03-19T16:11:27.966Z,53.39
2023-03-19T16:14:27.227Z,53.28
2023-03-19T16:17:01.097Z,53.18
2023-03-19T16:19:36.551Z,53.46
2023-03-19T16:22:11.960Z,53.48
2023-03-19T16:24:43.083Z,53.16
2023-03-19T16:27:14.539Z,53.24
2023-03-19T16:29:42.624Z,53.28
2023-03-19T16:32:14.534Z,53.67
2023-03-19T16:35:05.209Z,53.35
2023-03-19T16:37:43.398Z,53.57
2023-03-19T16:40:13.396Z,53.83
2023-03-19T16:43:14.582Z,53.57
2023-03-19T16:45:42.643Z,53.69
2023-03-19T16:48:09.504Z,53.61
2023-03-19T16:50:41.251Z,53.73
2023-03-19T16:53:27.931Z,53.67
2023-03-19T16:55:55.435Z,53.72
2023-03-19T16:58:31.972Z,53.43
2023-03-19T17:00:59.252Z,53.54
2023-03-19T17:03:26.288Z,53.45
2023-03-19T17:05:53.032Z,53.89
2023-03-19T17:08:22.015Z,53.80
2023-03-19T17:10:52.385Z,53.90
2023-03-19T17:13:21.885Z,53.66
2023-03-19T17:15:49.178Z,53.59
2023-03-19T17:18:23.755Z,53.46
2023-03-19T17:20:56.014Z,53.67
2023-03-19T17:23:27.014Z,54.30
2023-03-19T17:25:54.272Z,54.35
2023-03-19T17:28:21.341Z,54.46
2023-03-19T17:30:48.168Z,54.47
2023-03-19T17:33:20.734Z,54.29
2023-03-19T17:35:47.527Z,54.77
2023-03-19T17:38:15.676Z,54.41
2023-03-19T17:40:42.489Z,54.66
2023-03-19T17:43:10.430Z,54.88
2023-03-19T17:45:37.229Z,55.00
2023-03-19T17:48:04.138Z,54.96
2023-03-19T17:50:31.580Z,55.33
2023-03-19T17:52:58.573Z,55.28
2023-03-19T17:55:27.089Z,55.52
2023-03-19T17:57:54.029Z,54.96
2023-03-19T18:00:22.475Z,54.98
2023-03-19T18:02:50.182Z,54.98
2023-03-19T18:05:26.423Z,55.20
2023-03-19T18:07:56.775Z,54.97
2023-03-19T18:10:29.789Z,55.01
2023-03-19T18:13:00.131Z,55.35
2023-03-19T18:15:27.721Z,55.58
2023-03-19T18:17:56.291Z,55.41
2023-03-19T18:20:25.396Z,55.73
2023-03-19T18:22:52.199Z,55.63
2023-03-19T18:25:23.752Z,55.98
2023-03-19T18:27:51.408Z,56.56
2023-03-19T18:30:19.746Z,56.56
2023-03-19T18:32:47.934Z,56.93
2023-03-19T18:35:18.723Z,56.75
2023-03-19T18:37:46.588Z,57.17
2023-03-19T18:40:19.592Z,57.62
2023-03-19T18:42:47.167Z,57.44
2023-03-19T18:45:14.191Z,57.83
2023-03-19T18:47:41.689Z,57.99
2023-03-19T18:50:29.592Z,58.23
2023-03-19T18:52:56.745Z,58.14
2023-03-19T18:55:27.126Z,58.03
2023-03-19T18:57:55.337Z,58.32
2023-03-19T19:00:27.764Z,58.22
2023-03-19T19:02:54.798Z,58.34
2023-03-19T19:05:23.830Z,58.67
2023-03-19T19:07:51.401Z,58.56
2023-03-19T19:10:18.295Z,58.78
2023-03-19T19:12:46.455Z,58.67
2023-03-19T19:15:33.540Z,59.04
2023-03-19T19:18:00.852Z,59.10
2023-03-19T19:20:28.843Z,58.92
2023-03-19T19:22:56.018Z,58.97
2023-03-19T19:25:24.514Z,59.48
2023-03-19T19:28:05.843Z,59.50
2023-03-19T19:30:32.718Z,59.56
2023-03-19T19:32:59.753Z,59.79
2023-03-19T19:35:27.791Z,59.62
2023-03-19T19:37:55.623Z,59.61
2023-03-19T19:40:25.580Z,60.02
2023-03-19T19:42:52.514Z,59.84
2023-03-19T19:45:28.199Z,60.15
2023-03-19T19:47:55.075Z,60.21
2023-03-19T19:50:25.406Z,60.25
2023-03-19T19:52:52.919Z,60.51
2023-03-19T19:55:19.828Z,60.62
2023-03-19T19:57:47.935Z,60.80
2023-03-19T20:00:29.992Z,60.83
2023-03-19T20:02:57.759Z,61.05
2023-03-19T20:05:26.174Z,61.13
2023-03-19T20:07:55.345Z,61.38
2023-03-19T20:10:23.338Z,61.46
2023-03-19T20:12:54.914Z,61.38
2023-03-19T20:15:29.674Z,61.62
2023-03-19T20:17:56.686Z,61.67
2023-03-19T20:20:23.640Z,61.74
2023-03-19T20:22:51.171Z,61.53
2023-03-19T20:25:19.264Z,61.89
2023-03-19T20:27:46.618Z,61.95
2023-03-19T20:30:45.082Z,61.88
2023-03-19T20:33:12.797Z,62.22
2023-03-19T20:35:39.595Z,62.28
2023-03-19T20:38:06.946Z,62.08
2023-03-19T20:40:43.424Z,62.47
2023-03-19T20:43:28.516Z,62.29
2023-03-19T20:45:58.889Z,62.18
2023-03-19T20:48:25.900Z,62.17
2023-03-19T20:50:52.882Z,62.44
2023-03-19T20:53:19.690Z,62.46
2023-03-19T20:55:47.973Z,62.60
2023-03-19T20:58:27.724Z,62.60
2023-03-19T21:00:54.725Z,62.48
2023-03-19T21:03:22.739Z,62.48
2023-03-19T21:05:55.641Z,62.59
2023-03-19T21:08:43.576Z,63.00
2023-03-19T21:11:21.367Z,63.04
2023-03-19T21:13:49.694Z,62.91
2023-03-19T21:16:25.517Z,63.18
2023-03-19T21:18:54.024Z,63.14
2023-03-19T21:21:29.948Z,63.14
2023-03-19T21:24:08.127Z,63.23
2023-03-19T21:26:38.762Z,63.42
2023-03-19T21:29:07.408Z,63.51
2023-03-19T21:31:34.501Z,63.62
2023-03-19T21:34:01.775Z,63.63
2023-03-19T21:36:29.114Z,63.58
2023-03-19T21:38:56.497Z,63.84
2023-03-19T21:41:28.527Z,63.68
2023-03-19T21:44:10.145Z,63.79
2023-03-19T21:46:37.134Z,63.85
2023-03-19T21:49:04.029Z,63.82
2023-03-19T21:51:30.880Z,63.88
2023-03-19T21:53:58.728Z,63.72
2023-03-19T21:56:32.724Z,63.91
2023-03-19T21:59:04.645Z,63.97
2023-03-19T22:01:31.400Z,63.83
2023-03-19T22:03:58.413Z,63.96
2023-03-19T22:06:25.699Z,64.17
2023-03-19T22:08:54.268Z,64.10
2023-03-19T22:11:28.859Z,64.11
2023-03-19T22:13:59.600Z,64.15
2023-03-19T22:16:26.368Z,64.11
2023-03-19T22:18:53.291Z,64.41
2023-03-19T22:21:21.897Z,64.36
2023-03-19T22:23:49.001Z,64.40
2023-03-19T22:26:31.636Z,64.46
2023-03-19T22:29:00.025Z,64.62
2023-03-19T22:31:26.804Z,64.61
2023-03-19T22:33:53.675Z,64.60
2023-03-19T22:36:20.452Z,64.65
2023-03-19T22:38:48.857Z,64.71
2023-03-19T22:41:18.117Z,64.91
2023-03-19T22:43:45.553Z,64.80
2023-03-19T22:46:13.919Z,65.00
2023-03-19T22:48:42.167Z,65.10
2023-03-19T22:51:11.440Z,65.24
2023-03-19T22:53:38.158Z,65.34
2023-03-19T22:56:05.273Z,65.31
2023-03-19T22:58:41.996Z,65.35
2023-03-19T23:01:21.389Z,65.59
2023-03-19T23:03:49.122Z,65.53
2023-03-19T23:06:29.222Z,65.69
2023-03-19T23:08:57.461Z,65.68
2023-03-19T23:11:24.547Z,65.63
2023-03-19T23:13:51.652Z,65.79
2023-03-19T23:16:23.791Z,65.78
2023-03-19T23:18:50.841Z,65.93
2023-03-19T23:21:18.312Z,65.97
2023-03-19T23:23:45.432Z,65.85
2023-03-19T23:26:32.108Z,66.19
2023-03-19T23:29:03.657Z,66.31
2023-03-19T23:31:30.655Z,66.46
2023-03-19T23:33:57.581Z,66.90
2023-03-19T23:36:24.330Z,67.22
2023-03-19T23:38:51.839Z,67.81
2023-03-19T23:41:24.239Z,68.19
2023-03-19T23:43:52.026Z,68.67
2023-03-19T23:46:19.670Z,68.97
2023-03-19T23:48:46.596Z,68.98
2023-03-19T23:51:14.384Z,69.31
2023-03-19T23:53:41.457Z,69.66
2023-03-19T23:56:18.031Z,69.94
2023-03-19T23:58:44.805Z,69.86
